Terminal Aerodrome Forecast
Issued by NWS Louisville, KY

Home | Current Version | Previous Version | Text Only | Print | Product List | Glossary On
Versions: 1 2 3 4 5 6 7 8 9 10 11 12 13 14 15 16
000
FTUS43 KLMK 280523
TAFSDF
TAF
KSDF 280523Z 2806/2912 19008KT P6SM SCT030 BKN200
     FM280800 20007KT P6SM VCSH SCT030 SCT100 BKN200
     FM281100 19008KT P6SM SCT035 BKN080
     FM281600 23013G20KT P6SM BKN035
     FM282200 27012KT P6SM VCTS BKN040CB
     FM290200 30010KT P6SM SCT030 SCT250=

USA.gov is the U.S. government's official web portal to all federal, state and local government web resources and services.